createdAt,value
2022-11-16T00:02:23.354Z,10.27
2022-11-16T00:04:51.365Z,10.26
2022-11-16T00:07:19.385Z,10.22
2022-11-16T00:09:48.086Z,10.22
2022-11-16T00:12:17.248Z,10.21
2022-11-16T00:14:45.098Z,10.21
2022-11-16T00:17:12.998Z,10.20
2022-11-16T00:19:40.826Z,10.20
2022-11-16T00:22:08.860Z,10.19
2022-11-16T00:24:36.707Z,10.17
2022-11-16T00:27:04.723Z,10.16
2022-11-16T00:29:34.004Z,10.15
2022-11-16T00:32:02.724Z,10.14
2022-11-16T00:34:30.530Z,10.16
2022-11-16T00:36:58.440Z,10.18
2022-11-16T00:39:26.336Z,10.18
2022-11-16T00:41:54.308Z,10.19
2022-11-16T00:44:22.414Z,10.20
2022-11-16T00:46:51.933Z,10.20
2022-11-16T00:49:19.823Z,10.20
2022-11-16T00:51:48.040Z,10.21
2022-11-16T00:54:16.092Z,10.22
2022-11-16T00:56:44.321Z,10.24
2022-11-16T00:59:13.397Z,10.23
2022-11-16T01:01:43.440Z,10.24
2022-11-16T01:04:12.706Z,10.25
2022-11-16T01:06:40.641Z,10.25
2022-11-16T01:09:08.564Z,10.21
2022-11-16T01:11:53.897Z,10.18
2022-11-16T01:14:21.766Z,10.15
2022-11-16T01:16:50.455Z,10.12
2022-11-16T01:19:19.990Z,10.08
2022-11-16T01:21:47.853Z,10.03
2022-11-16T01:24:15.989Z,10.02
2022-11-16T01:26:43.885Z,9.98
2022-11-16T01:29:11.910Z,9.92
2022-11-16T01:31:44.314Z,9.86
2022-11-16T01:34:12.179Z,9.80
2022-11-16T01:39:36.617Z,9.73
2022-11-16T01:42:17.931Z,9.64
2022-11-16T01:45:02.713Z,9.60
2022-11-16T01:47:31.004Z,9.54
2022-11-16T01:50:05.677Z,9.54
2022-11-16T01:52:40.493Z,9.51
2022-11-16T01:55:09.363Z,9.51
2022-11-16T01:57:48.633Z,9.47
2022-11-16T02:00:19.778Z,9.46
2022-11-16T02:03:05.448Z,9.43
2022-11-16T02:06:08.769Z,9.41
2022-11-16T02:09:13.073Z,9.39
2022-11-16T02:12:15.410Z,9.35
2022-11-16T02:14:58.835Z,9.34
2022-11-16T02:17:42.952Z,9.33
2022-11-16T02:20:38.752Z,9.31
2022-11-16T02:23:29.041Z,9.29
2022-11-16T02:26:08.763Z,9.26
2022-11-16T02:28:49.453Z,9.26
2022-11-16T02:31:25.503Z,9.27
2022-11-16T02:33:56.318Z,9.26
2022-11-16T02:36:26.561Z,9.24
2022-11-16T02:38:59.880Z,9.21
2022-11-16T02:41:32.470Z,9.18
2022-11-16T02:44:05.839Z,9.17
2022-11-16T02:46:39.556Z,9.17
2022-11-16T02:49:12.854Z,9.17
2022-11-16T02:51:43.154Z,9.17
2022-11-16T02:54:13.249Z,9.16
2022-11-16T02:56:53.707Z,9.13
2022-11-16T02:59:30.248Z,9.13
2022-11-16T03:02:06.421Z,9.11
2022-11-16T03:04:40.092Z,9.11
2022-11-16T03:07:14.362Z,9.08
2022-11-16T03:09:43.441Z,9.06
2022-11-16T03:12:15.782Z,9.03
2022-11-16T03:14:48.722Z,9.00
2022-11-16T03:17:23.828Z,8.98
2022-11-16T03:19:58.937Z,8.97
2022-11-16T03:22:32.295Z,8.95
2022-11-16T03:25:00.641Z,8.90
2022-11-16T03:27:38.293Z,8.89
2022-11-16T03:30:10.857Z,8.87
2022-11-16T03:32:50.995Z,8.85
2022-11-16T03:35:24.750Z,8.84
2022-11-16T03:37:56.288Z,8.84
2022-11-16T03:40:28.776Z,8.82
2022-11-16T03:42:59.714Z,8.82
2022-11-16T03:45:28.060Z,8.80
2022-11-16T03:47:57.349Z,8.79
2022-11-16T03:50:29.348Z,8.78
2022-11-16T03:52:57.309Z,8.78
2022-11-16T03:55:25.272Z,8.79
2022-11-16T03:57:54.047Z,8.76
2022-11-16T04:00:22.696Z,8.76
2022-11-16T04:02:53.875Z,8.74
2022-11-16T04:05:41.387Z,8.74
2022-11-16T04:08:33.014Z,8.73
2022-11-16T04:11:18.629Z,8.72
2022-11-16T04:14:17.432Z,8.72
2022-11-16T04:17:02.988Z,8.72
2022-11-16T04:19:48.566Z,8.73
2022-11-16T04:22:39.661Z,8.72
2022-11-16T04:25:13.249Z,8.71
2022-11-16T04:27:59.394Z,8.72
2022-11-16T04:30:49.555Z,8.72
2022-11-16T04:33:34.922Z,8.71
2022-11-16T04:36:34.945Z,8.71
2022-11-16T04:39:05.600Z,8.71
2022-11-16T04:41:51.805Z,8.71
2022-11-16T04:44:20.115Z,8.70
2022-11-16T04:47:05.676Z,8.68
2022-11-16T04:49:35.162Z,8.67
2022-11-16T04:52:03.664Z,8.66
2022-11-16T04:54:34.151Z,8.66
2022-11-16T04:57:03.308Z,8.65
2022-11-16T04:59:31.227Z,8.66
2022-11-16T05:02:11.556Z,8.66
2022-11-16T05:04:46.643Z,8.63
2022-11-16T05:07:15.699Z,8.63
2022-11-16T05:09:48.588Z,8.63
2022-11-16T05:12:20.026Z,8.62
2022-11-16T05:14:51.266Z,8.63
2022-11-16T05:17:20.664Z,8.62
2022-11-16T05:20:06.581Z,8.62
2022-11-16T05:22:40.585Z,8.61
2022-11-16T05:25:11.134Z,8.61
2022-11-16T05:27:39.151Z,8.63
2022-11-16T05:30:09.069Z,8.63
2022-11-16T05:32:36.978Z,8.64
2022-11-16T05:35:06.174Z,8.63
2022-11-16T05:37:34.062Z,8.63
2022-11-16T05:40:02.722Z,8.64
2022-11-16T05:42:47.038Z,8.64
2022-11-16T05:45:19.870Z,8.65
2022-11-16T05:47:49.621Z,8.65
2022-11-16T05:50:18.375Z,8.65
2022-11-16T05:53:00.767Z,8.66
2022-11-16T05:55:28.987Z,8.65
2022-11-16T05:57:58.612Z,8.66
2022-11-16T06:00:26.913Z,8.66
2022-11-16T06:02:56.154Z,8.65
2022-11-16T06:05:29.242Z,8.65
2022-11-16T06:07:58.344Z,8.67
2022-11-16T06:10:26.550Z,8.67
2022-11-16T06:12:55.105Z,8.66
2022-11-16T06:15:25.529Z,8.67
2022-11-16T06:17:53.604Z,8.68
2022-11-16T06:20:21.961Z,8.68
2022-11-16T06:22:50.324Z,8.68
2022-11-16T06:25:18.886Z,8.69
2022-11-16T06:27:47.538Z,8.68
2022-11-16T06:30:18.906Z,8.68
2022-11-16T06:32:48.194Z,8.68
2022-11-16T06:35:16.680Z,8.69
2022-11-16T06:37:45.032Z,8.68
2022-11-16T06:40:13.824Z,8.68
2022-11-16T06:42:44.749Z,8.67
2022-11-16T06:45:14.867Z,8.66
2022-11-16T06:47:49.235Z,8.66
2022-11-16T06:50:19.744Z,8.66
2022-11-16T06:52:49.094Z,8.66
2022-11-16T06:55:18.167Z,8.67
2022-11-16T06:57:46.911Z,8.66
2022-11-16T07:00:16.040Z,8.66
2022-11-16T07:02:44.951Z,8.65
2022-11-16T07:05:17.840Z,8.64
2022-11-16T07:07:47.317Z,8.63
2022-11-16T07:10:15.754Z,8.63
2022-11-16T07:12:44.549Z,8.63
2022-11-16T07:15:14.647Z,8.63
2022-11-16T07:17:46.081Z,8.61
2022-11-16T07:20:14.606Z,8.61
2022-11-16T07:22:44.071Z,8.57
2022-11-16T07:25:16.345Z,8.57
2022-11-16T07:27:44.166Z,8.56
2022-11-16T07:30:14.518Z,8.55
2022-11-16T07:35:55.744Z,8.53
2022-11-16T07:38:27.894Z,8.51
2022-11-16T07:41:00.467Z,8.51
2022-11-16T07:43:31.659Z,8.50
2022-11-16T07:46:45.142Z,8.48
2022-11-16T07:49:11.099Z,8.47
2022-11-16T07:51:55.366Z,8.46
2022-11-16T07:54:48.096Z,8.47
2022-11-16T07:57:17.225Z,8.47
2022-11-16T07:59:45.124Z,8.47
2022-11-16T08:02:13.257Z,8.47
2022-11-16T08:04:42.751Z,8.49
2022-11-16T08:07:11.477Z,8.50
2022-11-16T08:09:48.398Z,8.51
2022-11-16T08:12:17.033Z,8.51
2022-11-16T08:14:45.375Z,8.52
2022-11-16T08:17:14.408Z,8.53
2022-11-16T08:19:43.306Z,8.53
2022-11-16T08:22:14.730Z,8.54
2022-11-16T08:24:43.410Z,8.54
2022-11-16T08:27:15.360Z,8.54
2022-11-16T08:29:45.090Z,8.53
2022-11-16T08:32:14.144Z,8.54
2022-11-16T08:34:42.016Z,8.54
2022-11-16T08:37:09.838Z,8.54
2022-11-16T08:39:44.404Z,8.53
2022-11-16T08:42:13.988Z,8.53
2022-11-16T08:44:46.438Z,8.54
2022-11-16T08:47:16.436Z,8.55
2022-11-16T08:49:55.891Z,8.57
2022-11-16T08:52:25.856Z,8.58
2022-11-16T08:54:55.358Z,8.60
2022-11-16T08:57:24.741Z,8.62
2022-11-16T08:59:57.814Z,8.64
2022-11-16T09:02:26.051Z,8.65
2022-11-16T09:04:54.771Z,8.68
2022-11-16T09:07:22.829Z,8.70
2022-11-16T09:09:50.912Z,8.71
2022-11-16T09:12:18.782Z,8.74
2022-11-16T09:14:48.215Z,8.78
2022-11-16T09:17:21.756Z,8.79
2022-11-16T09:19:51.014Z,8.82
2022-11-16T09:22:18.887Z,8.82
2022-11-16T09:24:47.309Z,8.83
2022-11-16T09:27:16.462Z,8.85
2022-11-16T09:29:45.022Z,8.86
2022-11-16T09:32:14.252Z,8.86
2022-11-16T09:34:42.148Z,8.90
2022-11-16T09:37:10.067Z,8.92
2022-11-16T09:39:38.182Z,8.94
2022-11-16T09:42:21.054Z,8.96
2022-11-16T09:44:57.412Z,8.96
2022-11-16T09:47:36.539Z,8.99
2022-11-16T09:50:06.980Z,9.00
2022-11-16T09:52:40.279Z,9.04
2022-11-16T09:55:23.168Z,9.04
2022-11-16T09:57:52.186Z,9.06
2022-11-16T10:00:23.620Z,9.07
2022-11-16T10:03:02.100Z,9.08
2022-11-16T10:05:35.419Z,9.11
2022-11-16T10:08:10.768Z,9.11
2022-11-16T10:10:40.936Z,9.13
2022-11-16T10:13:22.300Z,9.16
2022-11-16T10:16:00.306Z,9.18
2022-11-16T10:18:43.757Z,9.20
2022-11-16T10:21:25.287Z,9.20
2022-11-16T10:24:15.240Z,9.24
2022-11-16T10:26:51.454Z,9.26
2022-11-16T10:29:34.785Z,9.27
2022-11-16T10:32:15.318Z,9.26
2022-11-16T10:34:52.705Z,9.25
2022-11-16T10:37:21.497Z,9.28
2022-11-16T10:39:53.168Z,9.32
2022-11-16T10:42:28.432Z,9.35
2022-11-16T10:44:59.650Z,9.38
2022-11-16T10:47:34.902Z,9.42
2022-11-16T10:50:19.452Z,9.46
2022-11-16T10:52:47.358Z,9.51
2022-11-16T10:55:16.656Z,9.52
2022-11-16T10:57:59.972Z,9.50
2022-11-16T11:00:36.098Z,9.48
2022-11-16T11:03:04.649Z,9.46
2022-11-16T11:05:36.179Z,9.46
2022-11-16T11:08:07.440Z,9.47
2022-11-16T11:10:37.297Z,9.48
2022-11-16T11:13:08.931Z,9.47
2022-11-16T11:15:37.546Z,9.48
2022-11-16T11:18:13.387Z,9.48
2022-11-16T11:20:45.520Z,9.48
2022-11-16T11:23:16.844Z,9.46
2022-11-16T11:25:52.479Z,9.45
2022-11-16T11:28:24.052Z,9.46
2022-11-16T11:30:59.604Z,9.45
2022-11-16T11:33:30.915Z,9.44
2022-11-16T11:36:05.220Z,9.44
2022-11-16T11:38:34.398Z,9.45
2022-11-16T11:41:05.185Z,9.45
2022-11-16T11:43:35.049Z,9.47
2022-11-16T11:46:13.248Z,9.48
2022-11-16T11:48:48.141Z,9.49
2022-11-16T11:51:25.181Z,9.49
2022-11-16T11:53:57.423Z,9.50
2022-11-16T11:56:25.930Z,9.50
2022-11-16T11:58:55.034Z,9.53
2022-11-16T12:01:50.793Z,9.57
2022-11-16T12:05:03.739Z,9.61
2022-11-16T12:10:53.001Z,9.73
2022-11-16T12:13:44.349Z,9.77
2022-11-16T12:16:19.834Z,9.78
2022-11-16T12:19:14.602Z,9.81
2022-11-16T12:21:53.107Z,9.80
2022-11-16T12:24:37.278Z,9.82
2022-11-16T12:27:20.500Z,9.81
2022-11-16T12:30:02.129Z,9.80
2022-11-16T12:32:44.931Z,9.79
2022-11-16T12:35:22.843Z,9.78
2022-11-16T12:38:01.541Z,9.78
2022-11-16T12:40:50.309Z,9.81
2022-11-16T12:43:22.435Z,9.83
2022-11-16T12:46:06.860Z,9.83
2022-11-16T12:49:06.242Z,9.83
2022-11-16T12:51:48.118Z,9.84
2022-11-16T12:54:52.461Z,9.83
2022-11-16T12:57:40.249Z,9.84
2022-11-16T13:00:11.025Z,9.89
2022-11-16T13:02:56.212Z,9.95
2022-11-16T13:05:32.926Z,10.02
2022-11-16T13:08:11.177Z,10.10
2022-11-16T13:10:45.528Z,10.18
2022-11-16T13:13:35.959Z,10.27
2022-11-16T13:16:07.924Z,10.29
2022-11-16T13:18:39.656Z,10.33
2022-11-16T13:21:16.846Z,10.38
2022-11-16T13:23:50.518Z,10.42
2022-11-16T13:26:28.864Z,10.48
2022-11-16T13:29:08.579Z,10.51
2022-11-16T13:31:43.004Z,10.52
2022-11-16T13:34:17.779Z,10.50
2022-11-16T13:36:47.757Z,10.51
2022-11-16T13:39:22.244Z,10.57
2022-11-16T13:42:07.069Z,10.66
2022-11-16T13:44:37.138Z,10.73
2022-11-16T13:47:07.432Z,10.78
2022-11-16T13:49:37.912Z,10.87
2022-11-16T13:52:28.733Z,10.91
2022-11-16T13:54:59.203Z,10.86
2022-11-16T13:57:32.680Z,10.82
2022-11-16T14:00:12.738Z,10.79
2022-11-16T14:02:41.783Z,10.74
2022-11-16T14:05:17.682Z,10.71
2022-11-16T14:07:49.741Z,10.65
2022-11-16T14:11:02.712Z,10.64
2022-11-16T14:13:42.241Z,10.60
2022-11-16T14:16:42.897Z,10.54
2022-11-16T14:19:44.220Z,10.50
2022-11-16T14:22:26.608Z,10.48
2022-11-16T14:24:59.152Z,10.43
2022-11-16T14:27:34.291Z,10.39
2022-11-16T14:30:06.756Z,10.35
2022-11-16T14:32:44.348Z,10.32
2022-11-16T14:35:28.247Z,10.31
2022-11-16T14:38:00.307Z,10.31
2022-11-16T14:40:28.731Z,10.31
2022-11-16T14:43:20.213Z,10.30
2022-11-16T14:45:54.517Z,10.29
2022-11-16T14:48:26.901Z,10.27
2022-11-16T14:51:05.747Z,10.25
2022-11-16T14:53:36.193Z,10.24
2022-11-16T14:56:09.815Z,10.24
2022-11-16T14:58:38.927Z,10.24
2022-11-16T15:01:09.224Z,10.23
2022-11-16T15:03:47.928Z,10.23
2022-11-16T15:06:17.535Z,10.21
2022-11-16T15:08:49.327Z,10.21
2022-11-16T15:11:25.499Z,10.20
2022-11-16T15:13:54.982Z,10.20
2022-11-16T15:16:22.858Z,10.20
2022-11-16T15:19:00.528Z,10.18
2022-11-16T15:21:29.265Z,10.18
2022-11-16T15:26:45.426Z,10.14
2022-11-16T15:29:17.997Z,10.13
2022-11-16T15:31:46.308Z,10.11
2022-11-16T15:34:18.356Z,10.07
2022-11-16T15:36:47.489Z,10.04
2022-11-16T15:39:19.371Z,9.98
2022-11-16T15:41:47.940Z,9.93
2022-11-16T15:44:19.683Z,9.90
2022-11-16T15:46:51.428Z,9.85
2022-11-16T15:49:29.142Z,9.80
2022-11-16T15:51:59.317Z,9.77
2022-11-16T15:54:29.431Z,9.71
2022-11-16T15:57:07.002Z,9.65
2022-11-16T15:59:38.446Z,9.57
2022-11-16T16:02:06.563Z,9.49
2022-11-16T16:04:37.018Z,9.44
2022-11-16T16:07:04.897Z,9.34
2022-11-16T16:09:35.554Z,9.27
2022-11-16T16:12:18.469Z,9.18
2022-11-16T16:14:48.527Z,9.10
2022-11-16T16:17:24.675Z,9.00
2022-11-16T16:19:57.878Z,8.95
2022-11-16T16:22:29.508Z,8.87
2022-11-16T16:24:57.914Z,8.80
2022-11-16T16:27:27.849Z,8.75
2022-11-16T16:29:57.670Z,8.70
2022-11-16T16:32:28.042Z,8.67
2022-11-16T16:34:58.909Z,8.63
2022-11-16T16:37:29.048Z,8.62
2022-11-16T16:39:56.909Z,8.59
2022-11-16T16:42:24.848Z,8.60
2022-11-16T16:44:54.192Z,8.58
2022-11-16T16:47:24.040Z,8.54
2022-11-16T16:49:51.996Z,8.47
2022-11-16T16:52:21.295Z,8.39
2022-11-16T16:54:49.108Z,8.28
2022-11-16T16:57:18.826Z,8.18
2022-11-16T16:59:48.454Z,8.09
2022-11-16T17:02:17.188Z,7.98
2022-11-16T17:04:46.868Z,7.91
2022-11-16T17:07:15.211Z,7.87
2022-11-16T17:09:44.675Z,7.82
2022-11-16T17:12:12.471Z,7.78
2022-11-16T17:14:40.388Z,7.72
2022-11-16T17:17:08.333Z,7.66
2022-11-16T17:19:36.558Z,7.59
2022-11-16T17:22:04.411Z,7.53
2022-11-16T17:24:32.341Z,7.46
2022-11-16T17:27:01.495Z,7.43
2022-11-16T17:29:29.714Z,7.41
2022-11-16T17:31:57.614Z,7.38
2022-11-16T17:34:25.473Z,7.37
2022-11-16T17:36:53.400Z,7.36
2022-11-16T17:39:22.416Z,7.35
2022-11-16T17:41:51.016Z,7.32
2022-11-16T17:44:22.135Z,7.31
2022-11-16T17:46:50.707Z,7.28
2022-11-16T17:49:18.694Z,7.27
2022-11-16T17:51:46.529Z,7.24
2022-11-16T17:54:14.453Z,7.25
2022-11-16T17:56:42.372Z,7.23
2022-11-16T17:59:10.204Z,7.21
2022-11-16T18:01:39.568Z,7.19
2022-11-16T18:04:07.570Z,7.16
2022-11-16T18:06:35.708Z,7.13
2022-11-16T18:09:03.592Z,7.12
2022-11-16T18:11:31.506Z,7.13
2022-11-16T18:14:00.873Z,7.14
2022-11-16T18:16:31.539Z,7.14
2022-11-16T18:19:02.119Z,7.14
2022-11-16T18:21:30.181Z,7.15
2022-11-16T18:24:00.098Z,7.16
2022-11-16T18:26:28.136Z,7.18
2022-11-16T18:28:56.168Z,7.20
2022-11-16T18:31:25.370Z,7.22
2022-11-16T18:33:53.802Z,7.25
2022-11-16T18:36:23.517Z,7.25
2022-11-16T18:38:51.547Z,7.27
2022-11-16T18:41:21.459Z,7.27
2022-11-16T18:43:51.444Z,7.26
2022-11-16T18:46:19.994Z,7.26
2022-11-16T18:48:48.246Z,7.26
2022-11-16T18:51:17.423Z,7.25
2022-11-16T18:53:47.052Z,7.24
2022-11-16T18:56:15.420Z,7.22
2022-11-16T18:58:52.260Z,7.21
2022-11-16T19:01:22.941Z,7.21
2022-11-16T19:03:51.818Z,7.22
2022-11-16T19:06:20.267Z,7.26
2022-11-16T19:08:56.213Z,7.28
2022-11-16T19:11:25.330Z,7.30
2022-11-16T19:13:54.808Z,7.30
2022-11-16T19:16:23.627Z,7.27
2022-11-16T19:18:51.873Z,7.25
2022-11-16T19:21:20.146Z,7.24
2022-11-16T19:23:51.135Z,7.22
2022-11-16T19:26:20.720Z,7.20
2022-11-16T19:28:50.439Z,7.20
2022-11-16T19:31:20.571Z,7.19
2022-11-16T19:33:48.649Z,7.19
2022-11-16T19:36:17.963Z,7.19
2022-11-16T19:38:47.456Z,7.17
2022-11-16T19:41:17.909Z,7.16
2022-11-16T19:43:45.878Z,7.16
2022-11-16T19:46:16.514Z,7.17
2022-11-16T19:48:45.792Z,7.16
2022-11-16T19:51:19.002Z,7.16
2022-11-16T19:53:47.740Z,7.16
2022-11-16T19:56:18.467Z,7.13
2022-11-16T19:58:46.832Z,7.13
2022-11-16T20:01:17.196Z,7.14
2022-11-16T20:03:45.740Z,7.16
2022-11-16T20:06:15.264Z,7.16
2022-11-16T20:08:45.843Z,7.18
2022-11-16T20:11:15.330Z,7.19
2022-11-16T20:13:45.143Z,7.18
2022-11-16T20:16:14.208Z,7.18
2022-11-16T20:18:43.434Z,7.19
2022-11-16T20:21:14.882Z,7.21
2022-11-16T20:23:44.559Z,7.22
2022-11-16T20:26:14.380Z,7.23
2022-11-16T20:28:44.378Z,7.22
2022-11-16T20:31:14.183Z,7.22
2022-11-16T20:33:42.720Z,7.20
2022-11-16T20:36:12.434Z,7.17
2022-11-16T20:38:41.391Z,7.16
2022-11-16T20:41:10.867Z,7.15
2022-11-16T20:43:40.166Z,7.15
2022-11-16T20:46:10.533Z,7.13
2022-11-16T20:48:39.332Z,7.13
2022-11-16T20:51:08.640Z,7.11
2022-11-16T20:53:37.472Z,7.08
2022-11-16T20:56:07.683Z,7.06
2022-11-16T20:58:36.461Z,7.04
2022-11-16T21:01:06.899Z,7.02
2022-11-16T21:03:37.028Z,6.98
2022-11-16T21:06:08.730Z,6.93
2022-11-16T21:08:38.419Z,6.90
2022-11-16T21:11:11.723Z,6.88
2022-11-16T21:13:57.283Z,6.89
2022-11-16T21:16:25.194Z,6.89
2022-11-16T21:18:55.361Z,6.89
2022-11-16T21:21:23.575Z,6.88
2022-11-16T21:23:53.133Z,6.88
2022-11-16T21:26:22.722Z,6.89
2022-11-16T21:28:50.984Z,6.89
2022-11-16T21:31:20.364Z,6.87
2022-11-16T21:33:48.800Z,6.89
2022-11-16T21:36:20.435Z,6.89
2022-11-16T21:38:48.768Z,6.90
2022-11-16T21:41:18.570Z,6.92
2022-11-16T21:43:46.750Z,6.93
2022-11-16T21:46:16.683Z,6.95
2022-11-16T21:48:45.271Z,6.96
2022-11-16T21:51:15.005Z,6.95
2022-11-16T21:53:44.430Z,6.96
2022-11-16T21:56:14.619Z,6.96
2022-11-16T21:58:42.942Z,6.95
2022-11-16T22:01:11.689Z,6.96
2022-11-16T22:03:39.837Z,6.97
2022-11-16T22:06:27.510Z,6.98
2022-11-16T22:08:56.783Z,6.98
2022-11-16T22:11:24.675Z,6.98
2022-11-16T22:13:52.617Z,7.00
2022-11-16T22:16:23.105Z,7.00
2022-11-16T22:18:51.809Z,6.99
2022-11-16T22:21:19.643Z,6.96
2022-11-16T22:23:47.661Z,6.92
2022-11-16T22:26:16.908Z,6.90
2022-11-16T22:28:44.860Z,6.90
2022-11-16T22:31:14.552Z,6.88
2022-11-16T22:33:43.129Z,6.89
2022-11-16T22:36:13.205Z,6.89
2022-11-16T22:38:41.033Z,6.89
2022-11-16T22:41:09.007Z,6.88
2022-11-16T22:43:39.117Z,6.87
2022-11-16T22:46:07.474Z,6.86
2022-11-16T22:48:37.072Z,6.85
2022-11-16T22:51:06.870Z,6.85
2022-11-16T22:53:35.516Z,6.85
2022-11-16T22:56:08.275Z,6.84
2022-11-16T22:58:36.248Z,6.84
2022-11-16T23:01:07.352Z,6.85
2022-11-16T23:06:35.509Z,6.83
2022-11-16T23:09:03.390Z,6.83
2022-11-16T23:11:48.963Z,6.84
2022-11-16T23:14:50.188Z,6.83
2022-11-16T23:17:18.402Z,6.84
2022-11-16T23:20:03.593Z,6.82
2022-11-16T23:22:55.710Z,6.81
2022-11-16T23:25:41.257Z,6.82
2022-11-16T23:28:14.499Z,6.81
2022-11-16T23:30:42.616Z,6.79
2022-11-16T23:33:10.913Z,6.79
2022-11-16T23:35:38.966Z,6.76
2022-11-16T23:38:08.840Z,6.74
2022-11-16T23:40:38.319Z,6.73
2022-11-16T23:43:24.925Z,6.71
2022-11-16T23:45:52.900Z,6.72
2022-11-16T23:48:20.887Z,6.71
2022-11-16T23:50:49.020Z,6.72
2022-11-16T23:53:18.231Z,6.68
2022-11-16T23:55:47.507Z,6.65
2022-11-16T23:58:16.627Z,6.64
